Leander — DD5959 — position and weather

sailwx.info

Track history (hours):
 
Tides and Currents Weather Stations Pressure Air Temp Water Temp Dewpoint Dewpoint Depression Visibility Wind Speed Wind Dir Waves Ship Positions

Leander

Last reported at 2017-May-25 06:30 UTC. Time now 2017-May-25 06:49 UTC.
Position N 55°20' E 014°57'.

Length 15 m.

Type: Sailing vessel. MMSI: 211480070.

Date/timePositionNaut miles runAvg speedWind from/ knotsBaromVisibWave heightAir tempDewpointWater temp
2017-May-25 06:30N 55°20' E 014°57'2 4.2
2017-May-25 06:00N 55°20' E 014°54'3 5.0
2017-May-25 05:28N 55°19' E 014°49'3 5.2
2017-May-25 04:58N 55°18' E 014°45'2 4.8
2017-May-25 04:30N 55°16' E 014°42'2 4.8
2017-May-25 04:00N 55°14' E 014°39'3 5.2
2017-May-25 03:30N 55°12' E 014°37'2 4.4
2017-May-25 03:00N 55°10' E 014°35'3 5.8
2017-May-25 02:30N 55°08' E 014°33'3 6.9
2017-May-25 02:00N 55°05' E 014°30'4 7.1
2017-May-25 01:30N 55°01' E 014°27'4 7.4
2017-May-25 00:59N 54°58' E 014°24'4 7.4
2017-May-25 00:30N 54°55' E 014°21'4 7.0
2017-May-24 23:59N 54°52' E 014°18'3 6.8
2017-May-24 23:30N 54°49' E 014°16'  
Track history (hours):
 
Tides and Currents Weather Stations Pressure Air Temp Water Temp Dewpoint Dewpoint Depression Visibility Wind Speed Wind Dir Waves Ship Positions

Leander

Last reported at 2017-May-25 06:30 UTC. Time now 2017-May-25 06:49 UTC.
Position N 55°20' E 014°57'.

Length 15 m.

Type: Sailing vessel. MMSI: 211480070.

Date/timePositionNaut miles runAvg speedWind from/ knotsBaromVisibWave heightAir tempDewpointWater temp
2017-May-25 06:30N 55°20' E 014°57'2 4.2
2017-May-25 06:00N 55°20' E 014°54'3 5.0
2017-May-25 05:28N 55°19' E 014°49'3 5.2
2017-May-25 04:58N 55°18' E 014°45'2 4.8
2017-May-25 04:30N 55°16' E 014°42'2 4.8
2017-May-25 04:00N 55°14' E 014°39'3 5.2
2017-May-25 03:30N 55°12' E 014°37'2 4.4
2017-May-25 03:00N 55°10' E 014°35'3 5.8
2017-May-25 02:30N 55°08' E 014°33'3 6.9
2017-May-25 02:00N 55°05' E 014°30'4 7.1
2017-May-25 01:30N 55°01' E 014°27'4 7.4
2017-May-25 00:59N 54°58' E 014°24'4 7.4
2017-May-25 00:30N 54°55' E 014°21'4 7.0
2017-May-24 23:59N 54°52' E 014°18'3 6.8
2017-May-24 23:30N 54°49' E 014°16'  

Dump ship's entire track history